Time;durP1;ratioP1;P1;durP2;ratioP2;P2;SDS_P1;SDS_P2;PMS_P1;PMS_P2;Temp;Humidity;BMP_temperature;BMP_pressure;BME280_temperature;BME280_humidity;BME280_pressure;Samples;Min_cycle;Max_cycle;Signal;HPM_P1;HPM_P2
2021/07/08 00:01:30;;;;;;;16.38;9.30;;;;;;;14.29;100.00;101861.16;5180409;28;20033;-84
2021/07/08 00:04:01;;;;;;;17.75;9.60;;;;;;;14.23;100.00;101860.81;5188391;28;20026;-84
2021/07/08 00:06:31;;;;;;;18.33;11.25;;;;;;;14.22;100.00;101864.53;5180564;28;20065;-84
2021/07/08 00:09:10;;;;;;;19.42;11.23;;;;;;;14.24;100.00;101862.50;5180883;28;20029;-84
2021/07/08 00:11:41;;;;;;;20.23;11.68;;;;;;;14.28;100.00;101873.81;5180829;28;20737;-84
2021/07/08 00:14:12;;;;;;;18.08;10.93;;;;;;;14.30;100.00;101869.09;5163428;28;20026;-84
2021/07/08 00:16:42;;;;;;;20.10;10.52;;;;;;;14.33;100.00;101867.94;5180382;28;20053;-84
2021/07/08 00:19:13;;;;;;;17.58;10.40;;;;;;;14.34;100.00;101872.31;5181048;28;20084;-84
2021/07/08 00:21:43;;;;;;;17.38;10.50;;;;;;;14.35;100.00;101872.13;5163359;28;20026;-84
2021/07/08 00:24:14;;;;;;;21.63;10.30;;;;;;;14.39;100.00;101864.56;5194089;28;20025;-84
2021/07/08 00:26:45;;;;;;;18.20;9.82;;;;;;;14.45;100.00;101869.28;5185831;28;20109;-84
2021/07/08 00:29:15;;;;;;;24.42;10.50;;;;;;;14.45;100.00;101867.44;5191288;28;20250;-84
2021/07/08 00:31:45;;;;;;;16.08;9.00;;;;;;;14.45;100.00;101863.88;5184992;28;20294;-84
2021/07/08 00:34:16;;;;;;;21.88;9.15;;;;;;;14.43;100.00;101858.66;5180939;28;20247;-84
2021/07/08 00:36:46;;;;;;;17.73;9.38;;;;;;;14.42;100.00;101861.53;5193261;28;20025;-84
2021/07/08 00:39:17;;;;;;;22.15;9.90;;;;;;;14.41;100.00;101857.16;5184060;28;20095;-84
2021/07/08 00:41:47;;;;;;;19.10;10.05;;;;;;;14.35;100.00;101855.09;5179826;28;20040;-84
2021/07/08 00:44:18;;;;;;;14.45;8.70;;;;;;;14.31;100.00;101868.09;5180714;28;20030;-84
2021/07/08 00:46:48;;;;;;;16.33;9.32;;;;;;;14.28;100.00;101870.28;5180015;28;20026;-84
2021/07/08 00:49:19;;;;;;;17.88;9.40;;;;;;;14.23;100.00;101868.09;5180119;28;20489;-84
2021/07/08 00:51:49;;;;;;;16.10;9.50;;;;;;;14.17;100.00;101866.88;5184601;28;20057;-84
2021/07/08 00:54:20;;;;;;;18.52;9.95;;;;;;;14.11;100.00;101859.47;5186832;28;20022;-84
2021/07/08 00:56:50;;;;;;;22.23;9.65;;;;;;;14.07;100.00;101865.34;5189114;28;20029;-84
2021/07/08 00:59:21;;;;;;;22.23;10.15;;;;;;;14.01;100.00;101869.56;5180050;28;20216;-84
2021/07/08 01:01:53;;;;;;;18.80;10.38;;;;;;;13.95;100.00;101862.94;5167786;28;20022;-84
2021/07/08 01:04:24;;;;;;;16.48;8.90;;;;;;;13.90;100.00;101864.44;5188226;28;20507;-84
2021/07/08 01:06:56;;;;;;;19.15;10.13;;;;;;;13.83;100.00;101869.66;5192619;28;20163;-84
2021/07/08 01:09:26;;;;;;;19.73;10.90;;;;;;;13.76;100.00;101878.56;5187035;28;20400;-84
2021/07/08 01:12:10;;;;;;;20.05;10.25;;;;;;;13.66;100.00;101876.84;5180645;28;20018;-84
2021/07/08 01:14:40;;;;;;;24.33;10.23;;;;;;;13.63;100.00;101879.84;5180941;28;20030;-84
2021/07/08 01:17:11;;;;;;;19.70;11.30;;;;;;;13.62;100.00;101872.75;5181033;28;20096;-84
2021/07/08 01:19:42;;;;;;;20.95;10.90;;;;;;;13.60;100.00;101866.66;5182670;28;20666;-84
2021/07/08 01:22:13;;;;;;;19.17;10.85;;;;;;;13.57;100.00;101871.56;5183411;28;20380;-84
2021/07/08 01:24:43;;;;;;;26.15;11.15;;;;;;;13.49;100.00;101869.66;5200533;28;20392;-84
2021/07/08 01:27:14;;;;;;;19.10;10.80;;;;;;;13.41;100.00;101857.00;5186553;28;20032;-84
2021/07/08 01:29:45;;;;;;;20.98;10.20;;;;;;;13.36;100.00;101870.09;5184690;28;20120;-84
2021/07/08 01:32:16;;;;;;;20.25;10.20;;;;;;;13.32;100.00;101857.94;5187401;28;20064;-84
2021/07/08 01:34:46;;;;;;;17.90;11.25;;;;;;;13.31;100.00;101864.34;5199927;28;20449;-84
2021/07/08 01:37:17;;;;;;;21.38;9.82;;;;;;;13.33;100.00;101866.88;5188593;28;20036;-84
2021/07/08 01:39:48;;;;;;;22.27;10.80;;;;;;;13.34;100.00;101869.41;5182340;28;20421;-84
2021/07/08 01:42:19;;;;;;;20.70;11.35;;;;;;;13.36;100.00;101869.25;5191945;28;20033;-84
2021/07/08 01:44:55;;;;;;;19.58;10.43;;;;;;;13.38;100.00;101869.94;5196522;28;20026;-84
2021/07/08 01:47:26;;;;;;;19.15;10.90;;;;;;;13.40;100.00;101867.91;5180603;28;20057;-84
2021/07/08 01:49:57;;;;;;;22.38;10.95;;;;;;;13.43;100.00;101870.31;5179571;28;20503;-84
2021/07/08 01:52:27;;;;;;;19.48;9.95;;;;;;;13.46;100.00;101865.44;5180029;28;20025;-84
2021/07/08 01:55:00;;;;;;;24.70;9.55;;;;;;;13.48;100.00;101873.34;5182395;28;20029;-84
2021/07/08 01:57:34;;;;;;;15.15;9.13;;;;;;;13.48;100.00;101876.91;5189943;28;20032;-85
2021/07/08 02:00:06;;;;;;;20.33;10.00;;;;;;;13.46;100.00;101867.28;5171855;28;20013;-84
2021/07/08 02:02:37;;;;;;;21.65;10.65;;;;;;;13.43;100.00;101870.31;5194248;28;20083;-84
2021/07/08 02:05:10;;;;;;;20.38;10.13;;;;;;;13.39;100.00;101875.16;5197965;28;20025;-84
2021/07/08 02:07:40;;;;;;;27.95;12.60;;;;;;;13.38;100.00;101865.38;5187425;28;20052;-84
2021/07/08 02:10:13;;;;;;;21.45;12.43;;;;;;;13.39;100.00;101869.75;5192416;28;20025;-84
2021/07/08 02:12:44;;;;;;;23.25;11.75;;;;;;;13.38;100.00;101873.47;5185409;28;20030;-84
2021/07/08 02:15:17;;;;;;;33.45;12.48;;;;;;;13.37;100.00;101868.25;5180040;28;20054;-84
2021/07/08 02:17:48;;;;;;;23.95;13.05;;;;;;;13.37;100.00;101868.25;5180046;28;20068;-84
2021/07/08 02:20:19;;;;;;;22.63;11.80;;;;;;;13.35;100.00;101864.84;5179725;28;20033;-84
2021/07/08 02:22:50;;;;;;;25.95;12.38;;;;;;;13.36;100.00;101870.09;5180892;28;20022;-83
2021/07/08 02:25:21;;;;;;;26.38;12.07;;;;;;;13.31;100.00;101861.66;5190411;28;20404;-84
2021/07/08 02:27:51;;;;;;;21.98;12.60;;;;;;;13.31;100.00;101866.19;5182012;28;20029;-84
2021/07/08 02:30:23;;;;;;;22.17;11.68;;;;;;;13.23;100.00;101860.75;5195322;28;20028;-84
2021/07/08 02:32:56;;;;;;;19.85;11.98;;;;;;;13.21;100.00;101858.19;5166445;28;20404;-84
2021/07/08 02:35:27;;;;;;;23.27;10.98;;;;;;;13.14;100.00;101857.13;5188360;28;20399;-84
2021/07/08 02:37:58;;;;;;;20.15;11.27;;;;;;;13.07;100.00;101861.47;5187830;28;20044;-84
2021/07/08 02:40:31;;;;;;;22.60;11.70;;;;;;;13.02;100.00;101859.25;5191444;28;20030;-84
2021/07/08 02:43:03;;;;;;;23.90;12.57;;;;;;;12.96;100.00;101851.78;5190157;28;20032;-84
2021/07/08 02:45:37;;;;;;;22.48;11.32;;;;;;;12.90;100.00;101852.41;5196826;28;20088;-84
2021/07/08 02:48:11;;;;;;;22.15;11.98;;;;;;;12.84;100.00;101864.66;5182575;28;20122;-84
2021/07/08 02:50:44;;;;;;;26.58;12.60;;;;;;;12.81;100.00;101867.66;5188291;28;20032;-84
2021/07/08 02:53:15;;;;;;;25.92;11.82;;;;;;;12.77;100.00;101881.59;5189319;28;20097;-84
2021/07/08 02:55:46;;;;;;;22.90;12.38;;;;;;;12.80;100.00;101886.66;5183826;28;20451;-84
2021/07/08 02:58:17;;;;;;;27.38;14.48;;;;;;;12.82;100.00;101898.97;5184488;28;20038;-84
2021/07/08 03:00:48;;;;;;;30.65;15.43;;;;;;;12.90;100.00;101898.19;5182271;28;20507;-84
2021/07/08 03:03:18;;;;;;;43.58;16.00;;;;;;;13.03;100.00;101895.94;5193831;28;20025;-84
2021/07/08 03:05:49;;;;;;;21.73;13.32;;;;;;;13.13;100.00;101903.94;5183124;28;20018;-84
2021/07/08 03:08:19;;;;;;;37.03;15.38;;;;;;;13.18;100.00;101902.44;5196496;28;20083;-84
2021/07/08 03:10:50;;;;;;;28.67;14.10;;;;;;;13.24;100.00;101898.31;5182827;28;20092;-84
2021/07/08 03:13:20;;;;;;;30.02;13.77;;;;;;;13.25;100.00;101896.44;5182527;28;20559;-84
2021/07/08 03:15:51;;;;;;;24.90;12.52;;;;;;;13.23;100.00;101896.63;5182947;28;20157;-84
2021/07/08 03:18:21;;;;;;;25.48;13.10;;;;;;;13.25;100.00;101901.84;5193464;28;20036;-83
2021/07/08 03:20:52;;;;;;;23.90;12.73;;;;;;;13.24;100.00;101900.16;5199201;28;20033;-84
2021/07/08 03:23:22;;;;;;;29.75;13.57;;;;;;;13.24;100.00;101908.25;5185837;28;20025;-84
2021/07/08 03:25:53;;;;;;;21.90;12.90;;;;;;;13.23;100.00;101904.69;5185610;28;20038;-84
2021/07/08 03:28:23;;;;;;;24.10;12.18;;;;;;;13.27;100.00;101905.25;5199392;28;20028;-84
2021/07/08 03:30:54;;;;;;;29.30;12.43;;;;;;;13.29;100.00;101901.38;5196441;28;20101;-84
2021/07/08 03:33:24;;;;;;;28.63;13.38;;;;;;;13.30;100.00;101902.22;5198464;28;20021;-84
2021/07/08 03:35:55;;;;;;;25.30;11.77;;;;;;;13.29;100.00;101903.22;5188383;28;20037;-84
2021/07/08 03:38:25;;;;;;;23.48;12.43;;;;;;;13.25;100.00;101894.59;5186396;28;20087;-84
2021/07/08 03:40:56;;;;;;;26.83;12.25;;;;;;;13.21;100.00;101904.88;5189741;28;20026;-84
2021/07/08 03:43:26;;;;;;;22.35;12.63;;;;;;;13.15;100.00;101900.09;5165090;28;20022;-83
2021/07/08 03:45:56;;;;;;;23.73;12.93;;;;;;;13.10;100.00;101905.09;5195692;28;20484;-84
2021/07/08 03:48:27;;;;;;;25.23;12.60;;;;;;;13.05;100.00;101896.66;5186660;28;20547;-84
2021/07/08 03:50:58;;;;;;;25.02;12.77;;;;;;;13.03;100.00;101904.03;5182849;28;20702;-84
2021/07/08 03:53:29;;;;;;;24.80;13.35;;;;;;;13.00;100.00;101903.47;5190408;28;20026;-84
2021/07/08 03:55:59;;;;;;;20.55;12.52;;;;;;;12.97;100.00;101901.97;5166705;28;20033;-84
2021/07/08 03:58:30;;;;;;;29.48;12.98;;;;;;;12.93;100.00;101905.97;5197724;28;20049;-84
2021/07/08 04:01:00;;;;;;;25.05;12.63;;;;;;;12.92;100.00;101910.50;5185031;28;20053;-84
2021/07/08 04:03:30;;;;;;;30.23;13.52;;;;;;;12.90;100.00;101898.19;5183077;28;20403;-84
2021/07/08 04:06:01;;;;;;;30.33;12.77;;;;;;;12.91;100.00;101899.91;5198104;28;20022;-84
2021/07/08 04:08:31;;;;;;;27.40;14.68;;;;;;;12.95;100.00;101898.56;5194899;28;20025;-84
2021/07/08 04:11:02;;;;;;;31.88;14.75;;;;;;;13.05;100.00;101906.53;5177185;28;20056;-84
2021/07/08 04:13:32;;;;;;;30.20;13.70;;;;;;;13.09;100.00;101902.53;5186519;28;20025;-84
2021/07/08 04:16:03;;;;;;;23.52;12.80;;;;;;;13.11;100.00;101904.09;5186539;28;20492;-84
2021/07/08 04:18:34;;;;;;;30.60;12.98;;;;;;;13.10;100.00;101896.16;5195635;28;20096;-84
2021/07/08 04:21:04;;;;;;;27.15;11.80;;;;;;;13.09;100.00;101902.53;5201018;28;20478;-84
2021/07/08 04:23:35;;;;;;;24.88;12.45;;;;;;;13.08;100.00;101900.84;5190028;28;20112;-85
2021/07/08 04:26:05;;;;;;;23.58;10.85;;;;;;;13.07;100.00;101909.94;5197197;28;20025;-84
2021/07/08 04:28:37;;;;;;;21.98;10.63;;;;;;;13.07;100.00;101912.63;5188089;28;20548;-84
2021/07/08 04:31:09;;;;;;;22.52;11.60;;;;;;;13.07;100.00;101921.56;5189474;28;20704;-84
2021/07/08 04:33:39;;;;;;;23.25;11.82;;;;;;;13.08;100.00;101930.50;5188072;28;20037;-84
2021/07/08 04:36:12;;;;;;;21.50;10.88;;;;;;;13.16;100.00;101930.56;5183362;28;20210;-84
2021/07/08 04:38:44;;;;;;;26.30;11.93;;;;;;;13.28;100.00;101939.25;5184505;28;20053;-84
2021/07/08 04:41:14;;;;;;;23.67;11.52;;;;;;;13.41;100.00;101937.84;5199494;28;20118;-84
2021/07/08 04:43:45;;;;;;;27.38;14.43;;;;;;;13.57;100.00;101944.34;5183405;28;20485;-84
2021/07/08 04:46:15;;;;;;;23.20;12.52;;;;;;;13.73;100.00;101941.75;5181505;28;20237;-84
2021/07/08 04:48:46;;;;;;;24.90;12.90;;;;;;;13.87;100.00;101943.84;5192532;28;20083;-84
2021/07/08 04:51:16;;;;;;;27.13;13.38;;;;;;;14.09;100.00;101953.19;5180562;28;20080;-84
2021/07/08 04:53:47;;;;;;;24.98;11.80;;;;;;;14.30;100.00;101962.72;5188590;28;20017;-84
2021/07/08 04:56:17;;;;;;;21.00;12.25;;;;;;;14.48;100.00;101955.41;5187989;28;20026;-84
2021/07/08 04:58:48;;;;;;;28.45;12.63;;;;;;;14.67;100.00;101948.88;5181212;28;20392;-84
2021/07/08 05:01:18;;;;;;;27.75;12.13;;;;;;;14.88;100.00;101948.38;5184838;28;20029;-84
2021/07/08 05:03:49;;;;;;;22.63;10.85;;;;;;;15.01;100.00;101937.94;5195439;28;20030;-85
2021/07/08 05:06:19;;;;;;;21.02;10.70;;;;;;;15.07;100.00;101942.66;5193875;28;20057;-84
2021/07/08 05:08:50;;;;;;;23.65;11.35;;;;;;;15.13;100.00;101949.22;5181081;28;20026;-84
2021/07/08 05:11:20;;;;;;;24.52;11.48;;;;;;;15.22;100.00;101940.94;5184370;28;20033;-84
2021/07/08 05:13:51;;;;;;;22.75;10.93;;;;;;;15.41;100.00;101939.75;5201155;28;20017;-84
2021/07/08 05:16:21;;;;;;;26.00;12.93;;;;;;;15.62;100.00;101939.19;5187249;28;20029;-84
2021/07/08 05:18:52;;;;;;;25.92;11.85;;;;;;;15.74;100.00;101940.53;5187665;28;20034;-84
2021/07/08 05:21:23;;;;;;;19.48;10.30;;;;;;;15.98;100.00;101936.91;5181272;28;20208;-82
2021/07/08 05:23:57;;;;;;;19.63;10.77;;;;;;;16.12;100.00;101946.16;5194533;28;20033;-83
2021/07/08 05:26:28;;;;;;;20.50;11.35;;;;;;;16.08;100.00;101943.97;5187865;28;20061;-83
2021/07/08 05:28:58;;;;;;;19.98;10.45;;;;;;;16.16;100.00;101946.63;5182116;28;20073;-84
2021/07/08 05:31:29;;;;;;;18.65;10.88;;;;;;;16.27;100.00;101947.09;5180919;28;20100;-83
2021/07/08 05:33:59;;;;;;;20.42;10.15;;;;;;;17.11;100.00;101951.81;5180094;28;20025;-84
2021/07/08 05:36:30;;;;;;;21.98;9.07;;;;;;;18.45;100.00;101950.84;5179303;28;20033;-84
2021/07/08 05:39:01;;;;;;;14.30;8.48;;;;;;;20.11;100.00;101953.06;5179428;28;20018;-84
2021/07/08 05:41:32;;;;;;;13.52;8.15;;;;;;;21.34;100.00;101962.84;5179245;28;20029;-84
2021/07/08 05:44:02;;;;;;;16.65;8.20;;;;;;;21.92;100.00;101970.31;5179930;28;20034;-84
2021/07/08 05:46:33;;;;;;;16.10;8.20;;;;;;;22.19;100.00;101982.06;5183206;28;20060;-85
2021/07/08 05:49:04;;;;;;;16.92;8.52;;;;;;;22.72;100.00;101984.50;5183002;28;20331;-84
2021/07/08 05:51:34;;;;;;;15.73;7.70;;;;;;;23.33;100.00;101983.88;5178962;28;20455;-85
2021/07/08 05:54:05;;;;;;;15.85;8.18;;;;;;;23.78;100.00;101983.72;5184880;28;20036;-85
2021/07/08 05:56:35;;;;;;;14.70;8.13;;;;;;;23.18;100.00;101981.47;5186343;28;20395;-85
2021/07/08 05:59:06;;;;;;;17.48;7.85;;;;;;;23.85;100.00;101969.97;5180297;28;20077;-84
2021/07/08 06:01:36;;;;;;;14.75;8.27;;;;;;;23.82;100.00;101971.25;5168667;28;20017;-84
2021/07/08 06:04:07;;;;;;;12.55;7.72;;;;;;;24.36;100.00;101969.59;5190777;28;20734;-85
2021/07/08 06:06:37;;;;;;;14.07;8.40;;;;;;;24.37;100.00;101974.00;5190969;28;20075;-85
2021/07/08 06:09:07;;;;;;;18.50;8.70;;;;;;;24.28;100.00;101969.84;5179311;28;20392;-85
2021/07/08 06:11:38;;;;;;;19.25;8.55;;;;;;;24.49;100.00;101972.13;5188659;28;20083;-85
2021/07/08 06:14:09;;;;;;;16.65;8.10;;;;;;;24.65;100.00;101961.56;5199834;28;20033;-82
2021/07/08 06:16:39;;;;;;;11.70;7.38;;;;;;;24.99;100.00;101963.59;5199505;28;20641;-82
2021/07/08 06:19:09;;;;;;;12.25;7.18;;;;;;;25.44;81.61;101962.25;5181620;28;20071;-83
2021/07/08 06:21:40;;;;;;;11.43;6.65;;;;;;;26.25;86.76;101968.75;5180749;28;20101;-82
2021/07/08 06:24:10;;;;;;;13.70;7.47;;;;;;;25.49;93.55;101965.94;5179575;28;20026;-82
2021/07/08 06:26:41;;;;;;;14.18;7.40;;;;;;;25.08;93.39;101966.88;5179057;28;20026;-85
2021/07/08 06:29:11;;;;;;;15.10;7.57;;;;;;;24.38;100.00;101972.91;5195866;28;20056;-82
2021/07/08 06:31:42;;;;;;;12.82;7.05;;;;;;;24.13;100.00;101986.69;5179248;28;20033;-83
2021/07/08 06:34:12;;;;;;;11.02;6.22;;;;;;;24.32;100.00;101984.78;5179265;28;20165;-83
2021/07/08 06:36:43;;;;;;;21.33;7.70;;;;;;;24.74;100.00;101991.19;5182979;28;20461;-82
2021/07/08 06:39:13;;;;;;;13.20;6.78;;;;;;;24.96;95.81;101983.28;5178971;28;20029;-82
2021/07/08 06:41:44;;;;;;;16.83;6.88;;;;;;;25.08;90.17;101993.50;5178658;28;20480;-82
2021/07/08 06:44:14;;;;;;;11.00;5.80;;;;;;;25.27;77.14;101992.34;5183133;28;20022;-86
2021/07/08 06:46:50;;;;;;;12.15;6.05;;;;;;;24.51;77.99;101994.69;5179674;28;20129;-86
2021/07/08 06:49:21;;;;;;;11.85;6.57;;;;;;;24.63;94.79;101988.41;5187212;28;20447;-83
2021/07/08 06:51:51;;;;;;;16.75;7.47;;;;;;;24.20;100.00;101992.97;5179207;28;20030;-83
2021/07/08 06:54:22;;;;;;;14.02;7.13;;;;;;;23.62;100.00;101997.97;5179007;28;20084;-82
2021/07/08 06:56:52;;;;;;;18.30;7.88;;;;;;;22.85;100.00;102003.59;5183443;28;20032;-82
2021/07/08 06:59:23;;;;;;;19.15;8.68;;;;;;;22.32;100.00;102013.94;5179364;28;20029;-85
2021/07/08 07:01:53;;;;;;;13.45;7.75;;;;;;;21.83;100.00;102013.41;5186055;28;20061;-88
2021/07/08 07:04:24;;;;;;;17.52;8.68;;;;;;;21.17;100.00;102013.41;5188965;28;20034;-84
2021/07/08 07:06:54;;;;;;;16.05;8.57;;;;;;;21.05;100.00;102012.34;5186357;28;20034;-88
2021/07/08 07:09:25;;;;;;;16.05;8.63;;;;;;;21.10;100.00;102013.41;5179249;28;20036;-89
2021/07/08 07:11:55;;;;;;;13.50;8.43;;;;;;;21.17;100.00;102007.94;5187318;28;20550;-88
2021/07/08 07:14:26;;;;;;;20.35;8.68;;;;;;;21.18;100.00;101998.69;5194321;28;20120;-84
2021/07/08 07:16:56;;;;;;;14.70;7.53;;;;;;;21.42;100.00;102005.47;5184950;28;20087;-84
2021/07/08 07:19:28;;;;;;;17.70;8.38;;;;;;;21.47;100.00;102002.94;5181754;28;20034;-86
2021/07/08 07:22:01;;;;;;;18.98;8.88;;;;;;;21.27;100.00;102002.91;5190382;28;20065;-85
2021/07/08 07:24:33;;;;;;;12.88;8.55;;;;;;;21.33;100.00;101999.38;5186024;28;20029;-85
2021/07/08 07:27:03;;;;;;;18.48;8.75;;;;;;;21.24;100.00;102000.63;5173362;28;20018;-84
2021/07/08 07:29:34;;;;;;;16.70;8.38;;;;;;;21.16;100.00;102003.53;5164809;28;20563;-85
2021/07/08 07:32:05;;;;;;;15.52;7.63;;;;;;;21.34;100.00;102005.69;5177469;28;20017;-84
2021/07/08 07:34:35;;;;;;;16.40;8.70;;;;;;;21.23;100.00;101998.06;5201979;28;20029;-82
2021/07/08 07:37:09;;;;;;;24.67;9.02;;;;;;;21.31;100.00;102003.38;5182802;28;20041;-83
2021/07/08 07:39:39;;;;;;;20.92;8.63;;;;;;;21.23;100.00;101998.91;5199199;28;20085;-85
2021/07/08 07:42:10;;;;;;;15.98;8.13;;;;;;;21.28;100.00;101998.28;5181411;28;20156;-84
2021/07/08 07:44:44;;;;;;;14.43;7.38;;;;;;;21.33;100.00;101991.19;5188299;28;20029;-83
2021/07/08 07:47:15;;;;;;;12.95;7.60;;;;;;;21.48;100.00;101993.69;5182592;28;20053;-83
2021/07/08 07:49:45;;;;;;;15.57;7.97;;;;;;;21.74;100.00;101998.31;5188732;28;20028;-86
2021/07/08 07:52:16;;;;;;;15.43;8.15;;;;;;;21.57;100.00;101999.78;5195667;28;20021;-86
2021/07/08 07:54:46;;;;;;;14.82;7.85;;;;;;;21.84;100.00;102004.19;5171882;28;20022;-85
2021/07/08 07:57:17;;;;;;;14.30;7.00;;;;;;;21.87;100.00;101998.28;5164379;28;20030;-86
2021/07/08 07:59:48;;;;;;;14.27;4.57;;;;;;;21.76;100.00;102009.84;5177080;28;20433;-87
2021/07/08 08:02:18;;;;;;;12.25;4.70;;;;;;;22.16;100.00;102018.00;5175886;28;20024;-86
2021/07/08 08:05:18;;;;;;;8.95;4.05;;;;;;;22.58;100.00;102012.97;5183649;28;20088;-83
2021/07/08 08:10:37;;;;;;;10.82;5.30;;;;;;;22.34;100.00;102014.56;5198520;28;20025;-88
2021/07/08 08:13:09;;;;;;;12.63;4.82;;;;;;;22.26;100.00;102014.81;5170902;28;20380;-85
2021/07/08 08:15:40;;;;;;;12.02;4.65;;;;;;;22.11;100.00;102013.16;5202594;28;20103;-85
2021/07/08 08:18:11;;;;;;;17.15;5.53;;;;;;;21.77;100.00;102008.78;5154696;28;20033;-84
2021/07/08 08:20:42;;;;;;;13.07;5.72;;;;;;;21.78;100.00;102001.44;5185158;28;20084;-84
2021/07/08 08:23:13;;;;;;;11.25;5.78;;;;;;;21.75;100.00;102019.09;5183376;28;20032;-86
2021/07/08 08:25:44;;;;;;;10.95;5.38;;;;;;;21.95;100.00;102014.44;5187547;28;20329;-84
2021/07/08 08:28:17;;;;;;;13.27;5.22;;;;;;;22.02;100.00;102010.84;5163493;28;20025;-85
2021/07/08 08:30:48;;;;;;;15.07;5.15;;;;;;;22.45;100.00;102019.38;5195657;28;20067;-84
2021/07/08 08:33:18;;;;;;;13.63;5.18;;;;;;;22.61;100.00;102027.06;5182066;28;20472;-86
2021/07/08 08:35:49;;;;;;;13.25;4.75;;;;;;;22.80;100.00;102030.78;5186746;28;20022;-85
2021/07/08 08:38:20;;;;;;;10.35;5.40;;;;;;;23.27;100.00;102023.97;5178902;28;20113;-86
2021/07/08 08:40:51;;;;;;;7.65;4.32;;;;;;;23.77;94.79;102018.50;5182169;28;20108;-86
2021/07/08 08:43:22;;;;;;;9.07;4.82;;;;;;;23.93;93.78;102027.19;5180537;28;20041;-86
2021/07/08 08:45:53;;;;;;;7.25;4.25;;;;;;;24.08;96.78;102032.31;5192349;28;20553;-85
2021/07/08 08:48:23;;;;;;;12.32;4.95;;;;;;;24.06;87.20;102028.97;5186303;28;20263;-86
2021/07/08 08:50:54;;;;;;;11.23;4.97;;;;;;;24.06;83.80;102037.19;5169403;28;20026;-86
2021/07/08 08:53:24;;;;;;;9.75;5.28;;;;;;;23.89;100.00;102025.97;5162023;28;20029;-85
2021/07/08 08:55:55;;;;;;;13.85;5.05;;;;;;;23.82;88.06;102030.69;5181077;28;20021;-86
2021/07/08 08:58:26;;;;;;;13.73;5.32;;;;;;;24.38;87.64;102038.75;5182566;28;20029;-85
2021/07/08 09:00:57;;;;;;;8.82;5.10;;;;;;;24.19;87.48;102028.81;5180525;28;20026;-86
2021/07/08 09:03:31;;;;;;;14.50;5.93;;;;;;;24.13;97.07;102033.31;5197484;28;20060;-87
2021/07/08 09:06:06;;;;;;;12.82;5.80;;;;;;;23.97;100.00;102033.91;5166802;28;20053;-87
2021/07/08 09:08:38;;;;;;;11.88;5.85;;;;;;;24.06;95.26;102032.56;5170802;28;20030;-86
2021/07/08 09:11:13;;;;;;;14.65;5.60;;;;;;;23.91;100.00;102040.31;5162141;28;20077;-86
2021/07/08 09:13:50;;;;;;;;;;;;;;;24.10;100.00;102044.75;5162601;28;20029;-84
2021/07/08 09:16:24;;;;;;;15.43;6.45;;;;;;;24.32;100.00;102044.28;5162614;28;19932;-87
2021/07/08 09:19:00;;;;;;;13.25;5.75;;;;;;;24.19;100.00;102059.81;5179113;28;20396;-87
2021/07/08 09:21:36;;;;;;;11.85;6.05;;;;;;;24.20;100.00;102068.88;5181644;28;20399;-86
2021/07/08 09:24:15;;;;;;;14.27;6.32;;;;;;;24.27;100.00;102066.91;5164098;28;20060;-86
2021/07/08 09:26:59;;;;;;;13.02;6.22;;;;;;;25.12;86.88;102075.16;5174340;28;20125;-86
2021/07/08 09:29:33;;;;;;;9.75;6.50;;;;;;;24.95;86.71;102080.44;5174803;28;20029;-86
2021/07/08 09:32:13;;;;;;;13.73;6.70;;;;;;;25.08;88.03;102068.47;5179755;28;20502;-85
2021/07/08 09:34:53;;;;;;;12.35;6.60;;;;;;;25.14;82.46;102062.03;5179208;28;20287;-88
2021/07/08 09:37:27;;;;;;;12.55;6.07;;;;;;;24.98;83.07;102060.75;5196429;28;20104;-88
2021/07/08 09:40:00;;;;;;;15.23;5.93;;;;;;;24.69;100.00;102056.91;5181035;28;20034;-87
2021/07/08 09:42:45;;;;;;;9.80;5.47;;;;;;;25.11;81.52;102057.03;5199455;28;20030;-88
2021/07/08 09:45:18;;;;;;;10.80;5.10;;;;;;;25.33;86.58;102057.31;5176633;28;20030;-87
2021/07/08 09:47:49;;;;;;;12.82;5.38;;;;;;;25.43;79.29;102054.81;5158898;28;20025;-87
2021/07/08 09:50:22;;;;;;;11.77;5.57;;;;;;;25.62;70.06;102061.06;5160737;28;20052;-87
2021/07/08 09:58:54;;;;;;;9.95;5.65;;;;;;;25.44;93.07;102083.94;5178616;28;20029;-85
2021/07/08 10:01:26;;;;;;;12.13;5.88;;;;;;;25.73;68.02;102073.97;5178331;28;20026;-88
2021/07/08 10:03:57;;;;;;;10.27;5.88;;;;;;;25.92;68.27;102068.41;5171960;28;20238;-87
2021/07/08 10:06:32;;;;;;;15.52;6.93;;;;;;;25.69;65.54;102050.78;5161835;28;20084;-88
2021/07/08 10:09:05;;;;;;;9.00;6.03;;;;;;;25.18;71.30;102040.44;5178533;28;20112;-87
2021/07/08 10:11:37;;;;;;;9.77;5.95;;;;;;;25.62;70.40;102041.00;5161808;28;20021;-87
2021/07/08 10:14:08;;;;;;;22.67;6.50;;;;;;;25.76;79.95;102045.22;5178743;28;20041;-87
2021/07/08 10:16:39;;;;;;;9.75;5.95;;;;;;;25.79;74.26;102047.47;5179642;28;20397;-88
2021/07/08 10:19:13;;;;;;;10.32;5.38;;;;;;;26.14;82.47;102044.69;5161033;28;20040;-88
2021/07/08 10:21:46;;;;;;;10.25;4.13;;;;;;;26.48;66.30;102040.25;5163534;28;20014;-87
2021/07/08 10:24:18;;;;;;;9.43;4.75;;;;;;;26.37;56.16;102035.56;5193074;28;20033;-89
2021/07/08 10:26:50;;;;;;;7.95;4.38;;;;;;;26.12;68.08;102033.13;5197810;28;20104;-87
2021/07/08 10:29:21;;;;;;;11.27;3.78;;;;;;;25.98;75.85;102037.19;5185215;28;20036;-88
2021/07/08 10:31:53;;;;;;;8.77;2.45;;;;;;;26.07;62.23;102042.09;5172450;28;20358;-86
2021/07/08 10:34:24;;;;;;;4.85;2.55;;;;;;;26.51;62.90;102042.50;5144386;28;20060;-87
2021/07/08 10:36:55;;;;;;;6.15;2.40;;;;;;;26.47;57.97;102030.31;5175270;28;20033;-80
2021/07/08 10:39:26;;;;;;;6.80;2.10;;;;;;;26.88;53.60;102039.38;5180233;28;20033;-82
2021/07/08 10:41:58;;;;;;;12.13;2.92;;;;;;;27.20;52.96;102042.47;5180698;28;20488;-84
2021/07/08 10:44:39;;;;;;;8.90;2.67;;;;;;;27.48;57.88;102043.50;5198420;28;20555;-83
2021/07/08 10:47:35;;;;;;;5.03;2.55;;;;;;;27.29;51.25;102035.47;5179354;28;20112;-84
2021/07/08 10:50:27;;;;;;;4.88;3.40;;;;;;;27.79;54.42;102031.06;5180341;28;20022;-83
2021/07/08 10:53:14;;;;;;;7.15;3.13;;;;;;;28.00;61.46;102021.97;5193059;28;20452;-83
2021/07/08 10:55:47;;;;;;;8.95;3.67;;;;;;;28.08;60.44;102015.19;5185180;28;20030;-84
2021/07/08 10:58:39;;;;;;;10.25;4.40;;;;;;;28.12;51.75;102010.84;5161239;28;20021;-84
2021/07/08 11:01:34;;;;;;;6.88;3.78;;;;;;;28.22;51.51;102018.41;5184827;28;20049;-82
2021/07/08 11:04:05;;;;;;;9.57;3.92;;;;;;;28.19;52.07;102010.66;5184590;28;20176;-82
2021/07/08 11:06:38;;;;;;;9.10;4.13;;;;;;;27.95;53.79;102010.88;5176906;28;20115;-83
2021/07/08 11:09:11;;;;;;;8.70;3.88;;;;;;;27.63;50.67;102008.72;5184543;28;20115;-83
2021/07/08 11:11:45;;;;;;;9.15;3.50;;;;;;;27.41;52.28;102004.22;5168951;28;20514;-83
2021/07/08 11:14:17;;;;;;;9.30;4.13;;;;;;;27.37;51.16;102009.44;5181745;28;20168;-83
2021/07/08 11:17:00;;;;;;;8.13;4.63;;;;;;;27.25;49.56;102003.16;5164213;28;20042;-84
2021/07/08 11:19:34;;;;;;;5.63;3.25;;;;;;;27.35;50.79;102001.38;5194747;28;20029;-83
2021/07/08 11:22:14;;;;;;;6.95;3.55;;;;;;;27.71;51.01;101998.38;5196501;28;20389;-83
2021/07/08 11:24:47;;;;;;;6.40;3.10;;;;;;;27.33;53.18;102009.09;5165231;28;20029;-84
2021/07/08 11:27:33;;;;;;;8.52;3.08;;;;;;;27.41;52.45;102002.34;5191409;28;20026;-84
2021/07/08 11:30:13;;;;;;;6.00;2.38;;;;;;;27.39;45.33;102011.91;5193555;28;20029;-84
2021/07/08 11:32:48;;;;;;;7.82;2.60;;;;;;;27.61;47.22;102002.66;5184562;28;20039;-84
2021/07/08 11:38:11;;;;;;;3.45;2.58;;;;;;;28.05;51.09;102008.25;5185840;28;20034;-84
2021/07/08 11:40:44;;;;;;;6.57;2.60;;;;;;;28.79;49.17;102005.03;5181371;28;20052;-82
2021/07/08 11:43:16;;;;;;;4.65;2.58;;;;;;;28.32;47.71;102010.28;5181597;28;20028;-83